Time;durP1;ratioP1;P1;durP2;ratioP2;P2;SDS_P1;SDS_P2;PMS_P1;PMS_P2;Temp;Humidity;BMP_temperature;BMP_pressure;BME280_temperature;BME280_humidity;BME280_pressure;Samples;Min_cycle;Max_cycle;Signal;HPM_P1;HPM_P2
2023/06/19 00:01:44;;;;;;;499.77;446.63;;;;;;;;;;4981564;28;20844;-59
2023/06/19 00:04:09;;;;;;;490.40;437.13;;;;;;;;;;4982361;28;20039;-59
2023/06/19 00:06:35;;;;;;;487.40;434.97;;;;;;;;;;4982309;28;20136;-59
2023/06/19 00:09:01;;;;;;;499.37;446.47;;;;;;;;;;4982199;28;20418;-60
2023/06/19 00:11:26;;;;;;;496.27;443.47;;;;;;;;;;4970813;28;20593;-59
2023/06/19 00:13:52;;;;;;;499.33;446.90;;;;;;;;;;4982851;28;20065;-59
2023/06/19 00:16:19;;;;;;;508.57;455.17;;;;;;;;;;4980081;28;20538;-59
2023/06/19 00:18:45;;;;;;;519.43;465.67;;;;;;;;;;4972430;28;20759;-59
2023/06/19 00:21:11;;;;;;;497.97;445.07;;;;;;;;;;4980735;28;20756;-59
2023/06/19 00:23:36;;;;;;;488.07;435.17;;;;;;;;;;4981694;28;20431;-59
2023/06/19 00:26:02;;;;;;;478.37;426.20;;;;;;;;;;4981281;28;20034;-59
2023/06/19 00:28:27;;;;;;;477.70;425.47;;;;;;;;;;4981359;28;20049;-59
2023/06/19 00:30:53;;;;;;;476.67;424.40;;;;;;;;;;4978163;28;20493;-59
2023/06/19 00:33:20;;;;;;;480.87;428.37;;;;;;;;;;4981380;28;20297;-59
2023/06/19 00:35:45;;;;;;;478.27;426.27;;;;;;;;;;4979621;28;20295;-59
2023/06/19 00:38:12;;;;;;;350.17;311.50;;;;;;;;;;4980782;28;20490;-59
2023/06/19 00:40:38;;;;;;;472.93;420.63;;;;;;;;;;5011566;28;20620;-59
2023/06/19 00:43:03;;;;;;;362.57;323.73;;;;;;;;;;4981120;28;20286;-59
2023/06/19 00:45:29;;;;;;;357.83;318.77;;;;;;;;;;4970896;28;20049;-59
2023/06/19 00:47:56;;;;;;;349.97;306.23;;;;;;;;;;5012146;28;20268;-59
2023/06/19 00:50:22;;;;;;;467.13;398.83;;;;;;;;;;4981061;28;20278;-59
2023/06/19 00:52:48;;;;;;;361.67;322.70;;;;;;;;;;4970362;28;20950;-59
2023/06/19 00:55:14;;;;;;;472.27;418.70;;;;;;;;;;4980490;28;20321;-59
2023/06/19 00:57:40;;;;;;;466.37;408.80;;;;;;;;;;4987023;28;20103;-60
2023/06/19 01:00:08;;;;;;;345.37;301.53;;;;;;;;;;4980877;28;20322;-60
2023/06/19 01:02:34;;;;;;;345.47;305.13;;;;;;;;;;5012128;28;20834;-60
2023/06/19 01:05:01;;;;;;;344.57;302.77;;;;;;;;;;4980427;28;20575;-60
2023/06/19 01:07:45;;;;;;;467.33;410.77;;;;;;;;;;4980328;28;20655;-60
2023/06/19 01:10:13;;;;;;;467.73;410.33;;;;;;;;;;4980750;28;20047;-60
2023/06/19 01:12:50;;;;;;;471.60;419.17;;;;;;;;;;4980869;28;20293;-61
2023/06/19 01:15:16;;;;;;;348.63;306.07;;;;;;;;;;5011173;28;20505;-60
2023/06/19 01:17:42;;;;;;;344.30;300.80;;;;;;;;;;4970859;28;20376;-60
2023/06/19 01:20:10;;;;;;;467.53;406.17;;;;;;;;;;4987177;28;20129;-60
2023/06/19 01:22:37;;;;;;;350.63;311.73;;;;;;;;;;4980201;28;20116;-60
2023/06/19 01:25:05;;;;;;;468.77;408.10;;;;;;;;;;4981050;28;20273;-60
2023/06/19 01:27:31;;;;;;;464.83;396.47;;;;;;;;;;4980631;28;20356;-60
2023/06/19 01:29:59;;;;;;;348.80;309.20;;;;;;;;;;4979377;28;20367;-60
2023/06/19 01:32:28;;;;;;;467.27;407.80;;;;;;;;;;4979183;28;20389;-60
2023/06/19 01:34:54;;;;;;;469.97;417.37;;;;;;;;;;4980517;28;20436;-60
2023/06/19 01:37:21;;;;;;;468.30;411.70;;;;;;;;;;4981322;28;20421;-60
2023/06/19 01:39:47;;;;;;;344.03;297.10;;;;;;;;;;4981237;28;20289;-60
2023/06/19 01:42:13;;;;;;;469.53;405.07;;;;;;;;;;4980024;28;20045;-60
2023/06/19 01:44:39;;;;;;;469.37;399.27;;;;;;;;;;4979921;28;20085;-60
2023/06/19 01:47:13;;;;;;;463.70;396.40;;;;;;;;;;4979661;28;20823;-60
2023/06/19 01:49:41;;;;;;;466.17;396.48;;;;;;;;;;5011376;28;20289;-60
2023/06/19 01:52:07;;;;;;;464.40;399.57;;;;;;;;;;4970441;28;20058;-59
2023/06/19 01:54:32;;;;;;;347.90;303.07;;;;;;;;;;4981558;28;20472;-60
2023/06/19 01:56:58;;;;;;;467.67;399.00;;;;;;;;;;4979543;28;20617;-60
2023/06/19 01:59:24;;;;;;;467.97;400.17;;;;;;;;;;4980264;28;20604;-59
2023/06/19 02:01:49;;;;;;;468.90;404.10;;;;;;;;;;4979925;28;20380;-60
2023/06/19 02:04:15;;;;;;;347.47;298.57;;;;;;;;;;4979905;28;20057;-60
2023/06/19 02:06:40;;;;;;;468.27;402.10;;;;;;;;;;4986430;28;20054;-60
2023/06/19 02:09:07;;;;;;;463.30;391.70;;;;;;;;;;4979969;28;20042;-60
2023/06/19 02:11:37;;;;;;;466.53;393.03;;;;;;;;;;4983199;28;20052;-60
2023/06/19 02:14:02;;;;;;;466.00;392.90;;;;;;;;;;4967471;28;20736;-61
2023/06/19 02:16:28;;;;;;;469.83;398.43;;;;;;;;;;5013567;28;20403;-61
2023/06/19 02:18:55;;;;;;;467.67;399.47;;;;;;;;;;4973494;28;20129;-58
2023/06/19 02:21:20;;;;;;;346.03;290.93;;;;;;;;;;4983815;28;20344;-58
2023/06/19 02:23:46;;;;;;;346.50;296.30;;;;;;;;;;4973397;28;20305;-59
2023/06/19 02:26:11;;;;;;;462.90;380.63;;;;;;;;;;5012548;28;20450;-61
2023/06/19 02:28:37;;;;;;;465.23;386.60;;;;;;;;;;4973488;28;20030;-58
2023/06/19 02:31:04;;;;;;;468.80;403.03;;;;;;;;;;4981465;28;20688;-58
2023/06/19 02:33:32;;;;;;;470.73;388.83;;;;;;;;;;4981507;28;20301;-59
2023/06/19 02:35:58;;;;;;;342.93;287.73;;;;;;;;;;4983176;28;20296;-59
2023/06/19 02:38:29;;;;;;;468.17;386.23;;;;;;;;;;4983005;28;20795;-59
2023/06/19 02:40:57;;;;;;;465.90;381.90;;;;;;;;;;4984473;28;20365;-62
2023/06/19 02:43:22;;;;;;;461.43;375.80;;;;;;;;;;4983357;28;20621;-59
2023/06/19 02:45:48;;;;;;;465.10;385.17;;;;;;;;;;4990213;28;20296;-59
2023/06/19 02:48:13;;;;;;;468.57;389.30;;;;;;;;;;4973147;28;20528;-59
2023/06/19 02:50:39;;;;;;;461.47;370.33;;;;;;;;;;4983778;28;20050;-59
2023/06/19 02:53:04;;;;;;;461.33;373.93;;;;;;;;;;4982922;28;20050;-58
2023/06/19 02:55:30;;;;;;;347.53;290.30;;;;;;;;;;5014065;28;20039;-59
2023/06/19 02:57:55;;;;;;;464.87;382.27;;;;;;;;;;5014917;28;20130;-59
2023/06/19 03:00:21;;;;;;;462.23;374.80;;;;;;;;;;4971497;28;20045;-58
2023/06/19 03:02:48;;;;;;;463.27;377.10;;;;;;;;;;4983172;28;20029;-59
2023/06/19 03:05:16;;;;;;;340.23;275.10;;;;;;;;;;4973021;28;20043;-59
2023/06/19 03:07:42;;;;;;;464.47;377.13;;;;;;;;;;5013286;28;20306;-59
2023/06/19 03:10:08;;;;;;;465.43;385.07;;;;;;;;;;4983131;28;20797;-59
2023/06/19 03:12:34;;;;;;;461.10;371.70;;;;;;;;;;5013969;28;20049;-58
2023/06/19 03:14:59;;;;;;;463.17;375.93;;;;;;;;;;4982314;28;20690;-59
2023/06/19 03:17:27;;;;;;;345.17;285.57;;;;;;;;;;4980765;28;20041;-59
2023/06/19 03:19:52;;;;;;;463.33;377.63;;;;;;;;;;4971866;28;20286;-58
2023/06/19 03:22:19;;;;;;;344.73;289.70;;;;;;;;;;4972495;28;20603;-59
2023/06/19 03:24:45;;;;;;;468.03;388.07;;;;;;;;;;4982601;28;20270;-58
2023/06/19 03:27:17;;;;;;;465.03;383.20;;;;;;;;;;5013465;28;20290;-59
2023/06/19 03:29:42;;;;;;;466.37;376.43;;;;;;;;;;4981758;28;20850;-59
2023/06/19 03:32:10;;;;;;;342.97;283.33;;;;;;;;;;4972185;28;20334;-59
2023/06/19 03:34:35;;;;;;;342.63;278.97;;;;;;;;;;4983199;28;20831;-59
2023/06/19 03:37:05;;;;;;;344.50;286.27;;;;;;;;;;4972469;28;20120;-59
2023/06/19 03:39:32;;;;;;;466.53;374.73;;;;;;;;;;4979328;28;20760;-59
2023/06/19 03:42:04;;;;;;;462.97;383.70;;;;;;;;;;4972618;28;20416;-59
2023/06/19 03:44:30;;;;;;;461.77;380.63;;;;;;;;;;5012893;28;20388;-59
2023/06/19 03:46:57;;;;;;;462.53;374.17;;;;;;;;;;4988480;28;20297;-59
2023/06/19 03:49:22;;;;;;;465.37;381.87;;;;;;;;;;4971741;28;20591;-59
2023/06/19 03:51:49;;;;;;;464.93;391.57;;;;;;;;;;4987951;28;20096;-59
2023/06/19 03:54:15;;;;;;;464.87;395.30;;;;;;;;;;4970319;28;20411;-59
2023/06/19 03:56:40;;;;;;;461.73;385.57;;;;;;;;;;4982100;28;20042;-59
2023/06/19 03:59:06;;;;;;;464.40;390.60;;;;;;;;;;4982077;28;20429;-59
2023/06/19 04:01:31;;;;;;;462.57;400.20;;;;;;;;;;4981017;28;20184;-59
2023/06/19 04:03:57;;;;;;;464.70;400.27;;;;;;;;;;4981972;28;20144;-63
2023/06/19 04:06:23;;;;;;;468.23;408.77;;;;;;;;;;5012851;28;20501;-59
2023/06/19 04:08:48;;;;;;;467.60;411.97;;;;;;;;;;4981333;28;20472;-59
2023/06/19 04:11:14;;;;;;;466.03;406.27;;;;;;;;;;4981558;28;20089;-59
2023/06/19 04:13:39;;;;;;;341.87;293.73;;;;;;;;;;4980885;28;20442;-59
2023/06/19 04:16:05;;;;;;;467.17;405.60;;;;;;;;;;4982014;28;20136;-59
2023/06/19 04:18:30;;;;;;;464.83;410.37;;;;;;;;;;5012669;28;20508;-59
2023/06/19 04:20:56;;;;;;;464.10;405.57;;;;;;;;;;4971331;28;20047;-59
2023/06/19 04:23:21;;;;;;;464.33;402.17;;;;;;;;;;5012678;28;20378;-60
2023/06/19 04:25:47;;;;;;;345.57;305.77;;;;;;;;;;5013368;28;20081;-59
2023/06/19 04:28:12;;;;;;;466.27;407.97;;;;;;;;;;5012530;28;20038;-59
2023/06/19 04:30:42;;;;;;;344.00;306.00;;;;;;;;;;4981590;28;20092;-60
2023/06/19 04:33:08;;;;;;;470.33;412.43;;;;;;;;;;4979764;28;20549;-59
2023/06/19 04:35:39;;;;;;;343.23;305.37;;;;;;;;;;4980296;28;20772;-59
2023/06/19 04:38:05;;;;;;;466.33;413.43;;;;;;;;;;4980749;28;20039;-59
2023/06/19 04:40:31;;;;;;;357.70;319.00;;;;;;;;;;4980246;28;20751;-62
2023/06/19 04:42:56;;;;;;;482.20;430.07;;;;;;;;;;4982650;28;20038;-60
2023/06/19 04:45:22;;;;;;;484.20;432.20;;;;;;;;;;4980197;28;20437;-60
2023/06/19 04:47:47;;;;;;;478.93;426.53;;;;;;;;;;4983307;28;20121;-60
2023/06/19 04:50:13;;;;;;;488.73;435.97;;;;;;;;;;4981672;28;20042;-60
2023/06/19 04:52:38;;;;;;;362.83;324.40;;;;;;;;;;4982386;28;20040;-60
2023/06/19 04:55:09;;;;;;;516.40;463.43;;;;;;;;;;4981301;28;20260;-59
2023/06/19 04:57:35;;;;;;;514.90;462.27;;;;;;;;;;4982991;28;20034;-60
2023/06/19 05:00:01;;;;;;;503.20;450.53;;;;;;;;;;4981795;28;20290;-60
2023/06/19 05:02:26;;;;;;;511.90;458.73;;;;;;;;;;4981450;28;20332;-60
2023/06/19 05:04:52;;;;;;;525.10;472.13;;;;;;;;;;4980798;28;20035;-59
2023/06/19 05:07:17;;;;;;;394.43;354.83;;;;;;;;;;4981021;28;20066;-60
2023/06/19 05:09:43;;;;;;;541.37;487.43;;;;;;;;;;4980996;28;20085;-60
2023/06/19 05:12:09;;;;;;;544.13;489.83;;;;;;;;;;4979879;28;20054;-59
2023/06/19 05:14:34;;;;;;;543.30;489.63;;;;;;;;;;4980112;28;20556;-60
2023/06/19 05:17:00;;;;;;;552.13;498.30;;;;;;;;;;4980032;28;20297;-60
2023/06/19 05:19:25;;;;;;;550.03;496.63;;;;;;;;;;4979985;28;20952;-60
2023/06/19 05:21:51;;;;;;;395.50;356.30;;;;;;;;;;4980418;28;20322;-60
2023/06/19 05:24:17;;;;;;;547.90;494.37;;;;;;;;;;4980969;28;20097;-60
2023/06/19 05:26:43;;;;;;;558.23;504.23;;;;;;;;;;4981145;28;20102;-60
2023/06/19 05:29:08;;;;;;;415.07;375.67;;;;;;;;;;4981896;28;20843;-60
2023/06/19 05:31:34;;;;;;;553.67;500.20;;;;;;;;;;4981382;28;20298;-60
2023/06/19 05:33:59;;;;;;;515.47;462.57;;;;;;;;;;4980827;28;20526;-61
2023/06/19 05:36:25;;;;;;;514.67;461.73;;;;;;;;;;4981103;28;20043;-60
2023/06/19 05:38:50;;;;;;;541.57;487.77;;;;;;;;;;4982189;28;20050;-60
2023/06/19 05:41:16;;;;;;;581.97;527.87;;;;;;;;;;4980705;28;20871;-62
2023/06/19 05:43:41;;;;;;;407.63;368.23;;;;;;;;;;4980430;28;20478;-60
2023/06/19 05:46:07;;;;;;;567.00;512.70;;;;;;;;;;4968569;28;20486;-58
2023/06/19 05:48:32;;;;;;;439.83;399.93;;;;;;;;;;4981700;28;20052;-59
2023/06/19 05:50:58;;;;;;;636.07;580.83;;;;;;;;;;4979720;28;20473;-59
2023/06/19 05:53:23;;;;;;;466.27;425.73;;;;;;;;;;4979033;28;20061;-59
2023/06/19 05:55:48;;;;;;;473.97;433.27;;;;;;;;;;4977771;28;20038;-65
2023/06/19 05:58:14;;;;;;;639.30;584.03;;;;;;;;;;4979613;28;20042;-59
2023/06/19 06:00:40;;;;;;;657.83;602.13;;;;;;;;;;4978508;28;20046;-59
2023/06/19 06:03:05;;;;;;;647.07;591.63;;;;;;;;;;4979646;28;20042;-59
2023/06/19 06:05:31;;;;;;;671.30;615.33;;;;;;;;;;4978870;28;20425;-59
2023/06/19 06:07:56;;;;;;;658.23;602.67;;;;;;;;;;4979744;28;20061;-59
2023/06/19 06:10:23;;;;;;;660.60;605.03;;;;;;;;;;4978863;28;20026;-59
2023/06/19 06:12:48;;;;;;;690.70;634.40;;;;;;;;;;4979845;28;20057;-59
2023/06/19 06:15:14;;;;;;;677.13;621.43;;;;;;;;;;4979373;28;20250;-59
2023/06/19 06:17:40;;;;;;;694.23;637.70;;;;;;;;;;4978024;28;20193;-59
2023/06/19 06:20:11;;;;;;;691.37;634.80;;;;;;;;;;4977728;28;20042;-60
2023/06/19 06:22:37;;;;;;;706.43;649.90;;;;;;;;;;4994291;28;20137;-59
2023/06/19 06:25:02;;;;;;;712.30;655.47;;;;;;;;;;4978640;28;20038;-59
2023/06/19 06:27:27;;;;;;;715.87;658.83;;;;;;;;;;4976999;28;20485;-59
2023/06/19 06:29:53;;;;;;;711.30;654.60;;;;;;;;;;4977199;28;20046;-60
2023/06/19 06:32:19;;;;;;;709.80;653.23;;;;;;;;;;4980771;28;20039;-59
2023/06/19 06:34:44;;;;;;;725.20;668.03;;;;;;;;;;4978233;28;20062;-59
2023/06/19 06:37:09;;;;;;;707.10;650.77;;;;;;;;;;4979385;28;20073;-59
2023/06/19 06:39:35;;;;;;;720.07;662.90;;;;;;;;;;4978430;28;20046;-59
2023/06/19 06:42:00;;;;;;;724.27;667.30;;;;;;;;;;4979786;28;20050;-59
2023/06/19 06:44:26;;;;;;;715.97;659.13;;;;;;;;;;4977941;28;20027;-59
2023/06/19 06:46:52;;;;;;;720.73;663.30;;;;;;;;;;4979138;28;20466;-59
2023/06/19 06:49:17;;;;;;;741.13;683.47;;;;;;;;;;4980434;28;20034;-59
2023/06/19 06:51:43;;;;;;;532.00;490.20;;;;;;;;;;4979916;28;20049;-59
2023/06/19 06:54:09;;;;;;;733.63;676.77;;;;;;;;;;4979909;28;20133;-59
2023/06/19 06:56:35;;;;;;;733.83;676.27;;;;;;;;;;4980221;28;20026;-56
2023/06/19 06:59:00;;;;;;;737.43;680.23;;;;;;;;;;4982134;28;20053;-60
2023/06/19 07:01:26;;;;;;;739.47;682.40;;;;;;;;;;4983092;28;20473;-59
2023/06/19 07:03:52;;;;;;;732.43;675.23;;;;;;;;;;4984092;28;20061;-60
2023/06/19 07:06:17;;;;;;;746.57;689.37;;;;;;;;;;4982472;28;20054;-60
2023/06/19 07:08:43;;;;;;;749.27;691.97;;;;;;;;;;4982090;28;20129;-57
2023/06/19 07:11:09;;;;;;;748.33;690.80;;;;;;;;;;4982268;28;20544;-59
2023/06/19 07:13:34;;;;;;;738.50;681.60;;;;;;;;;;4983125;28;20116;-60
2023/06/19 07:16:01;;;;;;;740.73;683.43;;;;;;;;;;4981309;28;20069;-59
2023/06/19 07:18:27;;;;;;;746.47;689.07;;;;;;;;;;4983481;28;20041;-59
2023/06/19 07:20:52;;;;;;;761.03;703.07;;;;;;;;;;4982142;28;20478;-59
2023/06/19 07:23:18;;;;;;;758.00;700.07;;;;;;;;;;4983034;28;20589;-60
2023/06/19 07:25:45;;;;;;;743.50;686.30;;;;;;;;;;4982724;28;20596;-59
2023/06/19 07:28:10;;;;;;;744.33;686.80;;;;;;;;;;4973451;28;20389;-61
2023/06/19 07:30:35;;;;;;;760.73;702.53;;;;;;;;;;4981850;28;20034;-59
2023/06/19 07:33:01;;;;;;;760.10;702.53;;;;;;;;;;4983177;28;20096;-60
2023/06/19 07:35:26;;;;;;;767.30;709.10;;;;;;;;;;4982619;28;20057;-60
2023/06/19 07:37:52;;;;;;;769.77;711.80;;;;;;;;;;4982343;28;20402;-60
2023/06/19 07:40:17;;;;;;;763.47;705.70;;;;;;;;;;4983885;28;20452;-60
2023/06/19 07:42:43;;;;;;;767.97;710.00;;;;;;;;;;4982731;28;20117;-59
2023/06/19 07:45:08;;;;;;;769.13;710.97;;;;;;;;;;4982428;28;20673;-59
2023/06/19 07:47:34;;;;;;;770.63;712.80;;;;;;;;;;4981555;28;20322;-59
2023/06/19 07:49:59;;;;;;;778.97;721.00;;;;;;;;;;4982997;28;20121;-58
2023/06/19 07:52:24;;;;;;;794.40;736.20;;;;;;;;;;4981541;28;20051;-60
2023/06/19 07:54:57;;;;;;;781.67;722.97;;;;;;;;;;4982508;28;20588;-59
2023/06/19 07:57:23;;;;;;;781.33;723.27;;;;;;;;;;4981482;28;20516;-60
2023/06/19 07:59:50;;;;;;;784.07;726.00;;;;;;;;;;4980563;28;20146;-60
2023/06/19 08:02:15;;;;;;;775.57;717.50;;;;;;;;;;4980673;28;20034;-60
2023/06/19 08:04:41;;;;;;;786.07;727.90;;;;;;;;;;4981329;28;20041;-60
2023/06/19 08:07:06;;;;;;;790.03;731.90;;;;;;;;;;4979796;28;20466;-61
2023/06/19 08:09:34;;;;;;;784.00;725.77;;;;;;;;;;4982297;28;20045;-60
2023/06/19 08:12:00;;;;;;;804.70;746.37;;;;;;;;;;4980566;28;20043;-60
2023/06/19 08:14:26;;;;;;;818.70;759.70;;;;;;;;;;4981404;28;20038;-59
2023/06/19 08:16:52;;;;;;;830.43;771.17;;;;;;;;;;4981570;28;20405;-60
2023/06/19 08:19:17;;;;;;;822.10;763.20;;;;;;;;;;4981212;28;20042;-59
2023/06/19 08:21:43;;;;;;;816.33;757.30;;;;;;;;;;4981748;28;20601;-59
2023/06/19 08:24:08;;;;;;;824.03;764.93;;;;;;;;;;4979522;28;20035;-59
2023/06/19 08:26:33;;;;;;;830.50;770.97;;;;;;;;;;4980372;28;20039;-59
2023/06/19 08:29:03;;;;;;;826.80;767.50;;;;;;;;;;4980635;28;20310;-59
2023/06/19 08:31:28;;;;;;;829.73;770.67;;;;;;;;;;4981302;28;20045;-59
2023/06/19 08:33:54;;;;;;;827.53;768.73;;;;;;;;;;4981900;28;20418;-59
2023/06/19 08:36:20;;;;;;;830.70;771.63;;;;;;;;;;4980580;28;20034;-59
2023/06/19 08:38:49;;;;;;;839.90;780.40;;;;;;;;;;4980772;28;20667;-60
2023/06/19 08:41:18;;;;;;;833.63;774.17;;;;;;;;;;4981534;28;20046;-59
2023/06/19 08:43:44;;;;;;;829.13;769.97;;;;;;;;;;4981363;28;20050;-60
2023/06/19 08:46:11;;;;;;;839.27;779.87;;;;;;;;;;4981680;28;20160;-60
2023/06/19 08:48:37;;;;;;;833.90;774.77;;;;;;;;;;4982158;28;20537;-62
2023/06/19 08:51:04;;;;;;;844.37;784.97;;;;;;;;;;4980998;28;20121;-62
2023/06/19 08:53:31;;;;;;;844.33;783.80;;;;;;;;;;4982170;28;20042;-62
2023/06/19 08:55:57;;;;;;;823.60;763.83;;;;;;;;;;4979592;28;20243;-61
2023/06/19 08:58:23;;;;;;;823.23;764.13;;;;;;;;;;4981689;28;20034;-61
2023/06/19 09:00:49;;;;;;;838.17;778.97;;;;;;;;;;4980001;28;20062;-61
2023/06/19 09:03:19;;;;;;;838.53;779.47;;;;;;;;;;4982381;28;20034;-62
2023/06/19 09:05:49;;;;;;;832.80;773.70;;;;;;;;;;4980446;28;20525;-61
2023/06/19 09:08:15;;;;;;;848.37;788.83;;;;;;;;;;4981199;28;20041;-62
2023/06/19 09:10:41;;;;;;;832.87;773.80;;;;;;;;;;4981155;28;20045;-62
2023/06/19 09:13:08;;;;;;;850.73;791.20;;;;;;;;;;4980648;28;20101;-62
2023/06/19 09:15:35;;;;;;;863.47;803.60;;;;;;;;;;4979552;28;20045;-64
2023/06/19 09:18:01;;;;;;;867.33;807.77;;;;;;;;;;4969767;28;20037;-61
2023/06/19 09:20:28;;;;;;;865.83;806.07;;;;;;;;;;4978897;28;20196;-62
2023/06/19 09:22:57;;;;;;;864.77;804.90;;;;;;;;;;4979598;28;20057;-62
2023/06/19 09:25:26;;;;;;;874.77;814.53;;;;;;;;;;4980401;28;20478;-63
2023/06/19 09:27:55;;;;;;;869.33;809.03;;;;;;;;;;4980110;28;20084;-60
2023/06/19 09:30:21;;;;;;;868.23;808.37;;;;;;;;;;4980157;28;20034;-61
2023/06/19 09:32:46;;;;;;;878.57;818.23;;;;;;;;;;4986497;28;20592;-61
2023/06/19 09:35:12;;;;;;;885.83;825.53;;;;;;;;;;4979498;28;20382;-60
2023/06/19 09:37:38;;;;;;;891.13;830.40;;;;;;;;;;4979071;28;20089;-61
2023/06/19 09:40:10;;;;;;;894.20;833.30;;;;;;;;;;4980052;28;20485;-60
2023/06/19 09:42:37;;;;;;;892.63;832.03;;;;;;;;;;4979939;28;20065;-65
2023/06/19 09:45:07;;;;;;;887.40;826.80;;;;;;;;;;4978041;28;20138;-64
2023/06/19 09:47:32;;;;;;;899.40;838.63;;;;;;;;;;4978491;28;20061;-63
2023/06/19 09:49:59;;;;;;;917.23;855.90;;;;;;;;;;4979705;28;20121;-62
2023/06/19 09:52:24;;;;;;;916.47;855.17;;;;;;;;;;4979643;28;20129;-61
2023/06/19 09:55:00;;;;;;;911.25;849.50;;;;;;;;;;4978888;28;20454;-62
2023/06/19 09:57:25;;;;;;;910.23;848.77;;;;;;;;;;4980360;28;20030;-62
2023/06/19 09:59:52;;;;;;;922.67;860.90;;;;;;;;;;4980192;28;20027;-64
2023/06/19 10:02:20;;;;;;;920.13;858.60;;;;;;;;;;4983456;28;20110;-67
2023/06/19 10:04:46;;;;;;;920.27;858.97;;;;;;;;;;4978547;28;20039;-71
2023/06/19 10:07:19;;;;;;;928.87;867.30;;;;;;;;;;4970148;28;20050;-70
2023/06/19 10:09:57;;;;;;;930.37;868.57;;;;;;;;;;4974953;28;20047;-67
2023/06/19 10:12:22;;;;;;;937.63;875.50;;;;;;;;;;4977797;28;20046;-67
2023/06/19 10:14:50;;;;;;;941.90;879.77;;;;;;;;;;4978054;28;20469;-67
2023/06/19 10:17:16;;;;;;;933.53;871.87;;;;;;;;;;4979324;28;20537;-67
2023/06/19 10:19:49;;;;;;;927.80;866.27;;;;;;;;;;4967976;28;20552;-67
2023/06/19 10:22:19;;;;;;;937.17;875.03;;;;;;;;;;4979465;28;20053;-63
2023/06/19 10:24:49;;;;;;;939.77;877.87;;;;;;;;;;4969068;28;20429;-68
2023/06/19 10:27:20;;;;;;;945.93;883.80;;;;;;;;;;4980840;28;20038;-66
2023/06/19 10:29:51;;;;;;;951.67;889.37;;;;;;;;;;5010627;28;20038;-66
2023/06/19 10:32:17;;;;;;;957.57;895.17;;;;;;;;;;4982377;28;20058;-66
2023/06/19 10:34:46;;;;;;;944.20;881.87;;;;;;;;;;4983013;28;20034;-65
2023/06/19 10:37:12;;;;;;;967.20;904.30;;;;;;;;;;4981629;28;20088;-65
2023/06/19 10:39:38;;;;;;;959.20;896.67;;;;;;;;;;4981161;28;20336;-66
2023/06/19 10:42:07;;;;;;;973.77;910.70;;;;;;;;;;4981935;28;20049;-65
2023/06/19 10:44:32;;;;;;;971.30;908.43;;;;;;;;;;4981131;28;20130;-65
2023/06/19 10:46:58;;;;;;;964.27;901.53;;;;;;;;;;4981377;28;20039;-66
2023/06/19 10:49:24;;;;;;;979.10;915.87;;;;;;;;;;4982524;28;20042;-65
2023/06/19 10:51:50;;;;;;;979.73;916.73;;;;;;;;;;4982826;28;20472;-65
2023/06/19 10:54:16;;;;;;;979.30;916.10;;;;;;;;;;4979772;28;20050;-65
2023/06/19 10:56:43;;;;;;;985.07;921.47;;;;;;;;;;4979634;28;20035;-66
2023/06/19 10:59:09;;;;;;;972.10;909.53;;;;;;;;;;4982180;28;20126;-65
2023/06/19 11:01:36;;;;;;;972.30;909.33;;;;;;;;;;4982867;28;20042;-66
2023/06/19 11:04:08;;;;;;;973.17;910.33;;;;;;;;;;4981025;28;20022;-65
2023/06/19 11:06:34;;;;;;;968.83;905.83;;;;;;;;;;4980890;28;20438;-65
2023/06/19 11:09:00;;;;;;;961.40;899.10;;;;;;;;;;4983136;28;20049;-65
2023/06/19 11:11:41;;;;;;;966.00;903.30;;;;;;;;;;4982464;28;20030;-65
2023/06/19 11:14:06;;;;;;;947.93;885.93;;;;;;;;;;4982905;28;20064;-65
2023/06/19 11:16:32;;;;;;;953.23;891.30;;;;;;;;;;4982651;28;20112;-65
2023/06/19 11:18:59;;;;;;;944.17;882.00;;;;;;;;;;4983228;28;20470;-65
2023/06/19 11:21:32;;;;;;;952.47;890.10;;;;;;;;;;4983407;28;20041;-66
2023/06/19 11:23:58;;;;;;;950.30;888.17;;;;;;;;;;4982643;28;20072;-66
2023/06/19 11:26:27;;;;;;;961.93;899.47;;;;;;;;;;4981390;28;20121;-65
2023/06/19 11:28:53;;;;;;;947.63;885.53;;;;;;;;;;4982361;28;20402;-65
2023/06/19 11:31:24;;;;;;;951.50;889.23;;;;;;;;;;4983285;28;20786;-68
2023/06/19 11:34:01;;;;;;;953.73;891.50;;;;;;;;;;4971642;28;20089;-66
2023/06/19 11:36:27;;;;;;;952.67;890.60;;;;;;;;;;4982910;28;20125;-65
2023/06/19 11:38:53;;;;;;;969.23;906.43;;;;;;;;;;4988238;28;20060;-66
2023/06/19 11:41:28;;;;;;;957.47;895.10;;;;;;;;;;4972722;28;20626;-62
2023/06/19 11:44:04;;;;;;;966.30;903.47;;;;;;;;;;4969741;28;20386;-67
2023/06/19 11:46:31;;;;;;;965.57;902.53;;;;;;;;;;4971769;28;20034;-68
2023/06/19 11:49:19;;;;;;;965.87;903.13;;;;;;;;;;4982948;28;20034;-68
2023/06/19 11:51:46;;;;;;;966.00;903.13;;;;;;;;;;4981875;28;20038;-66
2023/06/19 11:54:12;;;;;;;959.33;896.93;;;;;;;;;;4971257;28;20051;-68
2023/06/19 11:56:38;;;;;;;964.87;902.20;;;;;;;;;;4982920;28;20380;-68
2023/06/19 11:59:04;;;;;;;970.33;907.40;;;;;;;;;;4983175;28;20565;-67
2023/06/19 12:01:31;;;;;;;977.00;914.03;;;;;;;;;;4981855;28;20040;-65
2023/06/19 12:03:56;;;;;;;979.07;916.10;;;;;;;;;;4982458;28;20030;-66
2023/06/19 12:06:22;;;;;;;966.93;903.83;;;;;;;;;;4981532;28;20165;-66
2023/06/19 12:08:47;;;;;;;981.37;917.00;;;;;;;;;;4980932;28;20482;-65
2023/06/19 12:11:13;;;;;;;982.17;915.97;;;;;;;;;;4981274;28;20111;-65
2023/06/19 12:13:40;;;;;;;974.13;909.63;;;;;;;;;;4981788;28;20062;-66
2023/06/19 12:16:05;;;;;;;980.97;916.77;;;;;;;;;;4980564;28;20070;-65
2023/06/19 12:18:30;;;;;;;988.30;923.93;;;;;;;;;;4981760;28;20030;-62
2023/06/19 12:20:56;;;;;;;1001.90;937.80;;;;;;;;;;4979719;28;20422;-63
2023/06/19 12:23:21;;;;;;;985.53;921.53;;;;;;;;;;4982518;28;20042;-64
2023/06/19 12:25:48;;;;;;;987.40;923.83;;;;;;;;;;4981904;28;20034;-61
2023/06/19 12:28:18;;;;;;;997.30;933.77;;;;;;;;;;4997163;28;20049;-60
2023/06/19 12:30:44;;;;;;;995.27;931.50;;;;;;;;;;4982111;28;20033;-62
2023/06/19 12:33:09;;;;;;;989.20;925.27;;;;;;;;;;4981653;28;20124;-62
2023/06/19 12:35:37;;;;;;;978.80;915.57;;;;;;;;;;4981826;28;20121;-64
2023/06/19 12:38:03;;;;;;;984.30;921.33;;;;;;;;;;4982116;28;20431;-63
2023/06/19 12:40:28;;;;;;;1001.23;937.30;;;;;;;;;;4980981;28;20034;-63
2023/06/19 12:42:53;;;;;;;1006.43;941.90;;;;;;;;;;4981313;28;20145;-62
2023/06/19 12:45:19;;;;;;;1004.57;940.40;;;;;;;;;;4981233;28;20572;-62
2023/06/19 12:47:44;;;;;;;1007.87;943.43;;;;;;;;;;4981919;28;20038;-62
2023/06/19 12:50:11;;;;;;;1005.93;941.80;;;;;;;;;;4980368;28;20047;-62
2023/06/19 12:52:36;;;;;;;1011.93;947.57;;;;;;;;;;4980346;28;20046;-62
2023/06/19 12:55:02;;;;;;;1014.87;950.40;;;;;;;;;;4980737;28;20136;-63
2023/06/19 12:57:27;;;;;;;1010.47;945.90;;;;;;;;;;4981560;28;20113;-63
2023/06/19 12:59:53;;;;;;;1011.13;946.67;;;;;;;;;;4979375;28;20034;-61
2023/06/19 13:02:18;;;;;;;1010.73;946.43;;;;;;;;;;4979786;28;20085;-61
2023/06/19 13:04:44;;;;;;;1022.73;957.93;;;;;;;;;;4980231;28;20043;-61
2023/06/19 13:07:09;;;;;;;1002.87;939.03;;;;;;;;;;4980276;28;20086;-61
2023/06/19 13:09:35;;;;;;;998.97;934.93;;;;;;;;;;4981040;28;20580;-61
2023/06/19 13:12:01;;;;;;;1001.13;937.33;;;;;;;;;;4980034;28;20469;-61
2023/06/19 13:14:27;;;;;;;998.30;934.57;;;;;;;;;;4981021;28;20042;-63
2023/06/19 13:16:52;;;;;;;999.27;935.77;;;;;;;;;;4979698;28;20045;-63
2023/06/19 13:19:18;;;;;;;991.80;928.13;;;;;;;;;;4995046;28;20374;-64
2023/06/19 13:21:44;;;;;;;989.27;925.70;;;;;;;;;;4980079;28;20050;-60
2023/06/19 13:24:10;;;;;;;992.00;928.73;;;;;;;;;;4970660;28;20038;-60
2023/06/19 13:26:35;;;;;;;979.30;916.27;;;;;;;;;;4970609;28;20204;-60
2023/06/19 13:29:01;;;;;;;985.40;922.00;;;;;;;;;;4980643;28;20065;-60
2023/06/19 13:31:26;;;;;;;990.37;926.47;;;;;;;;;;4977534;28;20600;-60
2023/06/19 13:33:52;;;;;;;990.13;926.57;;;;;;;;;;4980439;28;20081;-60
2023/06/19 13:36:19;;;;;;;978.23;915.43;;;;;;;;;;4979984;28;20030;-60
2023/06/19 13:38:46;;;;;;;998.53;934.77;;;;;;;;;;4987198;28;20050;-60
2023/06/19 13:41:11;;;;;;;997.10;933.60;;;;;;;;;;4980375;28;20124;-60
2023/06/19 13:43:39;;;;;;;996.80;933.43;;;;;;;;;;4980839;28;20046;-60
2023/06/19 13:46:06;;;;;;;1006.40;942.47;;;;;;;;;;4980745;28;20049;-60
2023/06/19 13:48:32;;;;;;;1005.20;941.47;;;;;;;;;;4981048;28;20034;-60